Time;durP1;ratioP1;P1;durP2;ratioP2;P2;SDS_P1;SDS_P2;PMS_P1;PMS_P2;Temp;Humidity;BMP_temperature;BMP_pressure;BME280_temperature;BME280_humidity;BME280_pressure;Samples;Min_cycle;Max_cycle;Signal;HPM_P1;HPM_P2
2021/07/06 00:00:39;;;;;;;1.27;0.50;;;;;;;26.10;51.14;100279.31;4959632;28;20081;-83
2021/07/06 00:03:05;;;;;;;0.88;0.40;;;;;;;26.11;50.78;100287.28;4960515;28;20383;-85
2021/07/06 00:05:55;;;;;;;2.13;0.50;;;;;;;26.11;50.47;100289.19;4962226;28;20018;-84
2021/07/06 00:08:20;;;;;;;0.47;0.30;;;;;;;25.83;50.57;100255.16;4961328;28;20435;-85
2021/07/06 00:10:46;;;;;;;0.22;0.20;;;;;;;26.01;50.48;100296.19;4979452;28;20538;-84
2021/07/06 00:13:11;;;;;;;0.30;0.30;;;;;;;25.77;50.65;100255.28;4962080;28;20101;-83
2021/07/06 00:15:40;;;;;;;4.38;0.35;;;;;;;25.77;50.46;100249.78;4964024;28;20034;-84
2021/07/06 00:18:05;;;;;;;0.40;0.40;;;;;;;25.78;50.49;100245.97;4962976;28;20035;-85
2021/07/06 00:20:31;;;;;;;0.73;0.30;;;;;;;25.88;50.72;100252.50;4962217;28;20069;-85
2021/07/06 00:23:04;;;;;;;0.43;0.25;;;;;;;25.84;50.84;100234.88;4962277;28;20023;-84
2021/07/06 00:25:31;;;;;;;0.38;0.38;;;;;;;25.98;50.70;100257.38;4962119;28;20043;-83
2021/07/06 00:27:59;;;;;;;0.50;0.30;;;;;;;25.94;50.61;100254.28;4963101;28;20129;-84
2021/07/06 00:30:25;;;;;;;0.40;0.40;;;;;;;25.71;50.95;100224.16;4962851;28;20117;-85
2021/07/06 00:32:54;;;;;;;0.70;0.28;;;;;;;25.70;50.38;100222.50;4961612;28;20103;-85
2021/07/06 00:35:20;;;;;;;5.93;0.50;;;;;;;25.69;50.92;100215.34;4961077;28;20027;-83
2021/07/06 00:37:46;;;;;;;0.60;0.40;;;;;;;25.74;50.41;100217.38;4978026;28;20110;-86
2021/07/06 00:40:14;;;;;;;1.98;0.50;;;;;;;25.86;50.75;100235.47;4960047;28;20022;-85
2021/07/06 00:42:45;;;;;;;1.40;0.40;;;;;;;25.85;50.77;100231.03;4960203;28;20027;-85
2021/07/06 00:45:12;;;;;;;2.35;0.40;;;;;;;25.87;50.67;100222.56;4961102;28;20479;-83
2021/07/06 00:47:43;;;;;;;0.40;0.20;;;;;;;25.63;50.91;100175.16;4961864;28;20109;-84
2021/07/06 00:50:14;;;;;;;1.75;0.52;;;;;;;25.65;50.47;100178.50;4961352;28;20022;-84
2021/07/06 00:52:39;;;;;;;2.08;0.30;;;;;;;25.81;51.00;100205.16;4960481;28;20019;-85
2021/07/06 00:55:06;;;;;;;1.25;0.40;;;;;;;25.83;50.20;100211.25;4959553;28;20554;-85
2021/07/06 00:57:31;;;;;;;1.30;0.32;;;;;;;25.82;50.92;100204.09;4959876;28;20023;-83
2021/07/06 01:00:03;;;;;;;0.15;0.15;;;;;;;25.81;50.71;100202.44;4960578;28;20023;-84
2021/07/06 01:02:29;;;;;;;2.45;0.50;;;;;;;25.79;50.67;100221.06;4961043;28;20050;-84
2021/07/06 01:04:54;;;;;;;0.40;0.40;;;;;;;25.73;50.47;100205.56;4959031;28;20078;-84
2021/07/06 01:07:33;;;;;;;0.68;0.40;;;;;;;25.69;50.78;100196.13;4959200;28;20491;-84
2021/07/06 01:10:20;;;;;;;0.50;0.30;;;;;;;25.79;50.84;100196.34;4959863;28;20054;-86
2021/07/06 01:12:47;;;;;;;0.90;0.25;;;;;;;25.65;50.79;100175.75;4962545;28;20078;-84
2021/07/06 01:15:26;;;;;;;2.10;0.40;;;;;;;25.63;50.38;100164.16;4960775;28;20031;-84
2021/07/06 01:18:12;;;;;;;2.17;0.22;;;;;;;25.78;50.75;100180.13;4960356;28;20114;-86
2021/07/06 01:20:43;;;;;;;0.30;0.30;;;;;;;25.81;50.39;100174.13;4961874;28;20038;-84
2021/07/06 01:23:08;;;;;;;1.17;0.20;;;;;;;25.70;50.11;100156.66;4961619;28;20039;-83
2021/07/06 01:25:38;;;;;;;0.20;0.20;;;;;;;25.77;50.36;100154.59;4961665;28;20543;-84
2021/07/06 01:28:04;;;;;;;0.30;0.22;;;;;;;25.59;50.45;100116.38;4961728;28;20077;-84
2021/07/06 01:30:30;;;;;;;0.68;0.45;;;;;;;25.55;50.71;100120.66;4961089;28;20062;-85
2021/07/06 01:32:56;;;;;;;3.65;0.75;;;;;;;25.67;50.49;100151.66;4959719;28;20019;-85
2021/07/06 01:35:22;;;;;;;0.52;0.20;;;;;;;25.62;50.72;100154.28;4959326;28;20070;-85
2021/07/06 01:37:53;;;;;;;0.93;0.38;;;;;;;25.74;50.59;100157.81;4958740;28;20050;-84
2021/07/06 01:40:20;;;;;;;0.22;0.22;;;;;;;25.63;50.46;100144.97;4961424;28;20058;-84
2021/07/06 01:42:46;;;;;;;4.72;0.60;;;;;;;25.58;50.51;100124.81;4959441;28;20023;-84
2021/07/06 01:45:14;;;;;;;0.65;0.40;;;;;;;25.66;50.81;100141.75;4958879;28;20108;-84
2021/07/06 01:47:45;;;;;;;1.90;0.43;;;;;;;25.64;50.79;100145.81;4958646;28;20479;-85
2021/07/06 01:50:14;;;;;;;0.70;0.40;;;;;;;25.58;50.40;100147.63;4958799;28;20031;-85
2021/07/06 01:53:27;;;;;;;0.20;0.20;;;;;;;25.44;50.61;100124.25;4976595;28;20057;-84
2021/07/06 01:55:53;;;;;;;1.65;0.30;;;;;;;25.56;50.75;100146.19;4974719;28;20090;-84
2021/07/06 01:58:21;;;;;;;0.30;0.30;;;;;;;25.54;50.39;100140.13;4962566;28;20079;-85
2021/07/06 02:00:50;;;;;;;0.30;0.30;;;;;;;25.37;50.77;100098.88;4963700;28;20483;-83
2021/07/06 02:03:16;;;;;;;0.43;0.43;;;;;;;25.54;51.00;100112.69;4963137;28;20031;-83
2021/07/06 02:05:46;;;;;;;1.23;0.30;;;;;;;25.53;50.79;100116.50;4961394;28;20073;-84
2021/07/06 02:08:15;;;;;;;0.45;0.40;;;;;;;25.54;51.02;100130.00;4961009;28;20050;-85
2021/07/06 02:10:42;;;;;;;1.88;0.47;;;;;;;25.54;50.88;100140.97;4962036;28;20046;-84
2021/07/06 02:13:12;;;;;;;1.65;0.30;;;;;;;25.54;50.56;100140.97;4961496;28;20022;-83
2021/07/06 02:15:38;;;;;;;0.82;0.70;;;;;;;25.54;51.03;100124.50;4961435;28;20027;-84
2021/07/06 02:18:04;;;;;;;3.45;1.55;;;;;;;25.46;50.91;100113.88;4963561;28;20474;-83
2021/07/06 02:20:30;;;;;;;0.50;0.50;;;;;;;25.54;50.54;100123.66;4962094;28;20023;-84
2021/07/06 02:22:55;;;;;;;1.48;0.57;;;;;;;25.56;50.84;100138.81;4946160;28;20058;-84
2021/07/06 02:25:21;;;;;;;0.95;0.50;;;;;;;25.56;50.93;100116.03;4962574;28;20034;-85
2021/07/06 02:27:47;;;;;;;0.40;0.40;;;;;;;25.55;50.65;100109.69;4963499;28;20387;-84
2021/07/06 02:30:19;;;;;;;2.15;0.47;;;;;;;25.48;50.80;100098.03;4963153;28;20118;-83
2021/07/06 02:33:08;;;;;;;0.55;0.30;;;;;;;25.35;51.03;100065.38;4963127;28;20030;-83
2021/07/06 02:35:43;;;;;;;1.27;0.35;;;;;;;25.50;50.92;100086.81;4962727;28;20030;-85
2021/07/06 02:38:09;;;;;;;0.55;0.50;;;;;;;25.49;50.52;100083.22;4963223;28;20398;-84
2021/07/06 02:43:03;;;;;;;0.65;0.30;;;;;;;25.58;50.73;100076.28;5014538;28;20304;-61
2021/07/06 02:45:31;;;;;;;0.88;0.50;;;;;;;25.57;50.77;100087.53;5016055;28;20021;-61
2021/07/06 02:47:56;;;;;;;0.35;0.35;;;;;;;25.54;50.35;100075.13;5016035;28;20532;-61
2021/07/06 02:50:23;;;;;;;3.95;0.57;;;;;;;25.45;50.54;100060.94;5015751;28;20033;-61
2021/07/06 02:52:48;;;;;;;2.72;0.30;;;;;;;25.55;50.61;100071.28;5015917;28;20022;-61
2021/07/06 02:55:14;;;;;;;2.22;0.60;;;;;;;25.54;50.94;100058.66;5004934;28;20414;-62
2021/07/06 02:57:40;;;;;;;0.85;0.40;;;;;;;25.52;50.76;100055.31;4996220;28;20026;-61
2021/07/06 03:00:06;;;;;;;1.77;0.40;;;;;;;25.54;50.89;100046.84;5027493;28;20030;-61
2021/07/06 03:02:31;;;;;;;1.75;0.47;;;;;;;25.53;50.65;100040.53;4996034;28;20027;-61
2021/07/06 03:04:56;;;;;;;1.85;0.70;;;;;;;25.53;50.76;100029.56;4995863;28;20109;-61
2021/07/06 03:07:22;;;;;;;2.33;0.40;;;;;;;25.50;50.88;100030.06;4995297;28;20025;-61
2021/07/06 03:09:47;;;;;;;1.13;0.55;;;;;;;25.48;50.64;100032.22;4996017;28;20466;-61
2021/07/06 03:12:12;;;;;;;0.32;0.32;;;;;;;25.47;50.41;100027.78;4994461;28;20044;-61
2021/07/06 03:14:38;;;;;;;0.57;0.47;;;;;;;25.49;50.58;100017.41;4995925;28;20355;-62
2021/07/06 03:17:03;;;;;;;1.35;0.30;;;;;;;25.50;50.60;100034.69;4995907;28;20029;-61
2021/07/06 03:19:29;;;;;;;1.55;0.40;;;;;;;25.48;50.81;100026.72;4995543;28;20033;-62
2021/07/06 03:21:54;;;;;;;2.75;0.45;;;;;;;25.49;50.88;100022.88;4995725;28;20030;-61
2021/07/06 03:24:19;;;;;;;0.50;0.32;;;;;;;25.49;50.49;100000.94;4995776;28;20053;-62
2021/07/06 03:26:45;;;;;;;2.63;0.50;;;;;;;25.49;50.88;99989.97;4995387;28;20029;-62
2021/07/06 03:29:10;;;;;;;0.30;0.30;;;;;;;25.50;50.90;99997.13;4995750;28;20445;-61
2021/07/06 03:31:35;;;;;;;1.08;0.68;;;;;;;25.52;50.55;99978.50;4995843;28;20030;-62
2021/07/06 03:34:01;;;;;;;0.50;0.40;;;;;;;25.54;50.40;99973.63;4995366;28;20033;-61
2021/07/06 03:36:26;;;;;;;0.63;0.60;;;;;;;25.56;50.66;99978.84;4995308;28;20088;-61
2021/07/06 03:38:51;;;;;;;1.48;0.47;;;;;;;25.57;50.39;99975.88;4995524;28;20066;-62
2021/07/06 03:41:17;;;;;;;0.32;0.32;;;;;;;25.58;50.53;99983.00;4994998;28;20058;-62
2021/07/06 03:43:42;;;;;;;0.52;0.40;;;;;;;25.59;50.58;99967.38;4995705;28;20084;-61
2021/07/06 03:46:08;;;;;;;2.53;0.50;;;;;;;25.61;50.20;99965.22;4995103;28;20540;-62
2021/07/06 03:48:33;;;;;;;2.95;0.50;;;;;;;25.64;50.69;99981.19;4995338;28;20031;-61
2021/07/06 03:50:58;;;;;;;2.97;0.63;;;;;;;25.66;50.54;99974.38;4994941;28;20101;-61
2021/07/06 03:53:24;;;;;;;2.00;0.30;;;;;;;25.69;50.36;99984.84;4995265;28;20030;-61
2021/07/06 03:55:49;;;;;;;0.60;0.40;;;;;;;25.72;50.68;99976.13;4995134;28;20490;-62
2021/07/06 03:58:14;;;;;;;0.77;0.50;;;;;;;25.75;49.81;99961.06;4994767;28;20053;-61
2021/07/06 04:00:40;;;;;;;3.47;0.50;;;;;;;25.78;50.17;99957.84;4993412;28;20030;-62
2021/07/06 04:03:05;;;;;;;3.53;0.73;;;;;;;25.81;50.62;99976.53;4994911;28;20031;-60
2021/07/06 04:05:30;;;;;;;0.38;0.30;;;;;;;25.84;49.79;99971.41;4995055;28;20414;-60
2021/07/06 04:07:56;;;;;;;4.43;0.40;;;;;;;25.90;49.99;99981.38;4994728;28;20463;-59
2021/07/06 04:10:21;;;;;;;3.30;0.47;;;;;;;25.94;50.11;99996.25;4993407;28;20031;-60
2021/07/06 04:12:48;;;;;;;0.85;0.68;;;;;;;25.95;49.72;99989.69;4995173;28;20114;-59
2021/07/06 04:15:15;;;;;;;0.85;0.60;;;;;;;26.00;50.09;99997.16;4994629;28;20105;-61
2021/07/06 04:17:40;;;;;;;1.23;0.60;;;;;;;26.02;49.59;100012.31;4993381;28;20026;-61
2021/07/06 04:20:07;;;;;;;1.27;0.75;;;;;;;26.08;49.97;100009.63;4994058;28;20519;-62
2021/07/06 04:22:33;;;;;;;5.32;0.47;;;;;;;26.12;49.70;100010.81;4994681;28;20113;-62
2021/07/06 04:24:58;;;;;;;1.88;0.63;;;;;;;26.17;49.30;100019.16;4994414;28;20065;-62
2021/07/06 04:27:23;;;;;;;3.50;0.65;;;;;;;26.19;49.79;100022.47;4994410;28;20035;-61
2021/07/06 04:29:49;;;;;;;0.68;0.68;;;;;;;26.24;49.80;100020.66;4994969;28;20030;-61
2021/07/06 04:32:16;;;;;;;1.02;0.50;;;;;;;26.32;49.56;100044.97;4994694;28;20022;-59
2021/07/06 04:34:43;;;;;;;3.47;0.70;;;;;;;26.38;49.68;100059.59;4994303;28;20026;-60
2021/07/06 04:37:08;;;;;;;0.88;0.57;;;;;;;26.43;49.64;100067.91;4994313;28;20409;-60
2021/07/06 04:39:34;;;;;;;6.07;0.95;;;;;;;26.49;49.35;100075.97;4994351;28;20034;-60
2021/07/06 04:41:59;;;;;;;1.88;0.60;;;;;;;26.58;49.39;100093.69;4994123;28;20141;-60
2021/07/06 04:44:25;;;;;;;0.93;0.70;;;;;;;26.59;49.77;100089.88;4994497;28;20034;-60
2021/07/06 04:46:50;;;;;;;2.13;0.68;;;;;;;26.65;49.33;100096.28;4994198;28;20160;-59
2021/07/06 04:49:15;;;;;;;7.45;0.68;;;;;;;26.66;49.25;100108.13;4994503;28;20030;-59
2021/07/06 04:51:41;;;;;;;3.55;0.98;;;;;;;26.62;49.71;100099.53;4994786;28;20049;-59
2021/07/06 04:54:06;;;;;;;1.30;1.00;;;;;;;26.63;50.14;100083.88;4994371;28;20037;-59
2021/07/06 04:56:32;;;;;;;3.72;1.02;;;;;;;26.60;50.28;100068.75;4994441;28;20022;-60
2021/07/06 04:58:57;;;;;;;1.50;0.70;;;;;;;26.59;50.00;100056.06;4994342;28;20466;-60
2021/07/06 05:01:22;;;;;;;2.17;0.77;;;;;;;26.57;50.21;100052.75;4994293;28;20092;-60
2021/07/06 05:03:49;;;;;;;2.33;0.55;;;;;;;26.59;50.16;100039.59;4994317;28;20381;-59
2021/07/06 05:06:17;;;;;;;1.38;0.60;;;;;;;26.60;49.71;100080.53;4994026;28;20118;-59
2021/07/06 05:08:42;;;;;;;3.97;0.85;;;;;;;26.65;49.85;100104.53;4994170;28;20061;-60
2021/07/06 05:11:08;;;;;;;0.60;0.55;;;;;;;26.67;50.38;100096.84;4994283;28;20061;-60
2021/07/06 05:13:33;;;;;;;2.30;0.60;;;;;;;26.66;49.64;100084.22;4994088;28;20100;-59
2021/07/06 05:15:58;;;;;;;2.20;0.65;;;;;;;26.67;50.38;100091.34;4994148;28;20050;-59
2021/07/06 05:18:24;;;;;;;2.10;0.60;;;;;;;26.64;50.41;100086.38;4994071;28;20031;-60
2021/07/06 05:20:49;;;;;;;0.73;0.65;;;;;;;26.66;49.79;100044.91;5024727;28;20085;-60
2021/07/06 05:23:14;;;;;;;0.55;0.55;;;;;;;26.63;49.71;100028.94;4993927;28;20031;-60
2021/07/06 05:25:40;;;;;;;2.60;0.70;;;;;;;26.61;50.47;99999.78;4993879;28;20023;-60
2021/07/06 05:28:05;;;;;;;0.85;0.50;;;;;;;26.56;50.16;99979.63;4994047;28;20125;-60
2021/07/06 05:30:31;;;;;;;1.38;1.27;;;;;;;26.51;50.01;99921.88;4994721;28;20109;-59
2021/07/06 05:32:58;;;;;;;4.15;0.90;;;;;;;26.49;50.14;99877.34;4996245;28;20026;-61
2021/07/06 05:35:23;;;;;;;0.50;0.50;;;;;;;26.46;49.84;99930.06;4997409;28;20053;-62
2021/07/06 05:37:49;;;;;;;0.93;0.35;;;;;;;26.40;49.77;99967.63;4997454;28;20023;-63
2021/07/06 05:40:14;;;;;;;0.45;0.35;;;;;;;26.36;49.57;99973.84;4997855;28;20028;-62
2021/07/06 05:42:40;;;;;;;2.03;0.47;;;;;;;26.35;49.48;99999.69;4996869;28;20384;-62
2021/07/06 05:45:07;;;;;;;1.75;0.30;;;;;;;26.38;49.55;100026.66;4996665;28;20451;-62
2021/07/06 05:47:35;;;;;;;0.10;0.10;;;;;;;26.39;49.90;100022.78;4997930;28;20034;-62
2021/07/06 05:50:02;;;;;;;3.65;0.35;;;;;;;26.42;49.79;100049.75;5028606;28;20037;-62
2021/07/06 05:52:28;;;;;;;1.15;0.40;;;;;;;26.45;49.82;100058.34;5029126;28;20398;-62
2021/07/06 05:54:54;;;;;;;0.93;0.55;;;;;;;26.49;49.68;100047.69;4997159;28;20061;-62
2021/07/06 05:57:29;;;;;;;0.40;0.40;;;;;;;26.52;48.86;100033.44;4997428;28;20022;-62
2021/07/06 05:59:54;;;;;;;1.60;0.22;;;;;;;26.52;49.17;100022.47;4997240;28;20495;-62
2021/07/06 06:02:20;;;;;;;1.60;0.30;;;;;;;26.56;49.28;100029.09;4997192;28;20029;-62
2021/07/06 06:04:45;;;;;;;0.45;0.30;;;;;;;26.55;48.70;100010.94;4997357;28;20034;-62
2021/07/06 06:07:10;;;;;;;1.77;0.30;;;;;;;26.53;49.22;100033.19;4997264;28;20061;-62
2021/07/06 06:09:36;;;;;;;0.65;0.45;;;;;;;26.55;48.94;100036.50;4996846;28;20080;-62
2021/07/06 06:12:01;;;;;;;0.47;0.30;;;;;;;26.58;49.01;100026.91;4995564;28;20463;-62
2021/07/06 06:14:27;;;;;;;2.53;0.25;;;;;;;26.60;49.09;100041.25;4997160;28;20481;-62
2021/07/06 06:16:52;;;;;;;0.95;0.22;;;;;;;26.65;48.79;100048.72;4996858;28;20446;-59
2021/07/06 06:19:17;;;;;;;0.35;0.20;;;;;;;26.65;48.45;100022.09;4997027;28;20097;-62
2021/07/06 06:21:42;;;;;;;0.65;0.50;;;;;;;26.71;48.71;100020.25;4996566;28;20031;-62
2021/07/06 06:24:08;;;;;;;0.43;0.38;;;;;;;26.76;48.31;100012.91;4996910;28;20036;-62
2021/07/06 06:26:33;;;;;;;1.05;0.28;;;;;;;26.80;47.90;100019.56;4996885;28;20069;-62
2021/07/06 06:28:59;;;;;;;0.70;0.30;;;;;;;26.82;47.91;100025.66;4996515;28;20026;-62
2021/07/06 06:31:24;;;;;;;0.55;0.15;;;;;;;26.82;47.79;100031.16;4996788;28;20018;-61
2021/07/06 06:33:50;;;;;;;0.40;0.30;;;;;;;26.86;47.49;100018.53;4996724;28;20109;-63
2021/07/06 06:36:15;;;;;;;0.15;0.13;;;;;;;26.85;48.13;100038.91;4996449;28;20037;-63
2021/07/06 06:38:41;;;;;;;0.45;0.30;;;;;;;26.86;47.57;100051.53;4996618;28;20030;-62
2021/07/06 06:41:06;;;;;;;0.68;0.40;;;;;;;26.85;47.74;100049.88;5028122;28;20038;-62
2021/07/06 06:43:32;;;;;;;0.45;0.28;;;;;;;26.85;47.28;100049.88;5027171;28;20069;-60
2021/07/06 06:45:57;;;;;;;0.95;0.30;;;;;;;26.86;47.91;100053.44;4996544;28;20038;-60
2021/07/06 06:48:23;;;;;;;0.20;0.20;;;;;;;26.86;47.18;100061.69;4996508;28;20451;-61
2021/07/06 06:50:48;;;;;;;0.65;0.35;;;;;;;26.86;47.43;100062.53;4996117;28;20493;-62
2021/07/06 06:53:13;;;;;;;2.08;0.45;;;;;;;26.84;47.08;100064.72;4996358;28;20415;-62
2021/07/06 06:55:39;;;;;;;0.57;0.20;;;;;;;26.83;47.68;100074.03;4996284;28;20033;-62
2021/07/06 06:58:04;;;;;;;0.45;0.10;;;;;;;26.81;47.14;100070.72;4996305;28;20152;-62
2021/07/06 07:00:31;;;;;;;5.72;0.30;;;;;;;26.78;47.39;100053.84;5027523;28;20050;-62
2021/07/06 07:02:56;;;;;;;1.08;0.30;;;;;;;26.74;47.53;100053.56;4996125;28;20030;-62
2021/07/06 07:05:22;;;;;;;4.75;0.35;;;;;;;26.72;47.20;100071.38;4995993;28;20034;-62
2021/07/06 07:07:47;;;;;;;0.30;0.20;;;;;;;26.71;46.93;100059.56;4996009;28;20030;-61
2021/07/06 07:10:13;;;;;;;1.17;0.68;;;;;;;26.69;47.18;100061.69;4996336;28;20053;-62
2021/07/06 07:12:41;;;;;;;0.10;0.10;;;;;;;26.72;46.98;100083.19;4995756;28;20026;-62
2021/07/06 07:15:10;;;;;;;1.17;0.20;;;;;;;26.77;46.30;100097.03;4995962;28;20387;-62
2021/07/06 07:17:36;;;;;;;0.20;0.20;;;;;;;26.79;47.08;100100.38;4995671;28;20027;-62
2021/07/06 07:20:01;;;;;;;0.57;0.40;;;;;;;26.81;47.51;100092.69;4996113;28;20030;-62
2021/07/06 07:22:27;;;;;;;0.22;0.20;;;;;;;26.81;47.01;100098.19;4995695;28;20033;-62
2021/07/06 07:24:52;;;;;;;1.02;0.15;;;;;;;26.88;47.07;100098.88;4995487;28;20391;-62
2021/07/06 07:27:17;;;;;;;2.15;0.20;;;;;;;26.92;46.47;100110.16;4995891;28;20084;-62
2021/07/06 07:29:43;;;;;;;0.80;0.30;;;;;;;26.95;46.73;100105.00;4994109;28;20026;-62
2021/07/06 07:32:08;;;;;;;0.35;0.22;;;;;;;27.01;46.07;100109.50;4995588;28;20049;-60
2021/07/06 07:34:34;;;;;;;0.75;0.20;;;;;;;27.05;46.21;100118.06;4995808;28;20052;-59
2021/07/06 07:37:00;;;;;;;0.10;0.10;;;;;;;27.14;46.18;100119.28;4995626;28;20026;-60
2021/07/06 07:39:26;;;;;;;0.40;0.40;;;;;;;27.16;45.82;100111.63;4995434;28;20026;-60
2021/07/06 07:41:51;;;;;;;0.63;0.22;;;;;;;27.20;45.66;100112.75;4995607;28;20137;-60
2021/07/06 07:44:17;;;;;;;1.33;0.20;;;;;;;27.23;45.94;100116.91;4994981;28;20053;-59
2021/07/06 07:46:42;;;;;;;0.10;0.10;;;;;;;27.30;45.71;100109.31;4995066;28;20072;-59
2021/07/06 07:49:08;;;;;;;1.65;0.20;;;;;;;27.38;44.60;100114.38;4995204;28;20105;-60
2021/07/06 07:51:33;;;;;;;1.35;0.35;;;;;;;27.48;44.95;100123.59;4994964;28;20061;-60
2021/07/06 07:53:59;;;;;;;6.20;0.40;;;;;;;27.60;45.11;100113.28;4995307;28;20026;-59
2021/07/06 07:56:24;;;;;;;0.10;0.10;;;;;;;27.71;44.46;100115.06;4994904;28;20064;-59
2021/07/06 07:58:49;;;;;;;0.30;0.15;;;;;;;27.80;45.00;100111.84;4993605;28;20037;-62
2021/07/06 08:01:15;;;;;;;0.80;0.20;;;;;;;27.91;44.85;100119.97;4994790;28;20035;-62
2021/07/06 08:03:40;;;;;;;3.03;0.38;;;;;;;27.93;44.20;100122.44;4994804;28;20046;-61
2021/07/06 08:06:05;;;;;;;0.40;0.30;;;;;;;27.93;44.89;100130.69;4994773;28;20467;-63
2021/07/06 08:08:31;;;;;;;0.52;0.22;;;;;;;27.90;44.19;100123.78;4995036;28;20378;-62
2021/07/06 08:10:59;;;;;;;1.58;0.22;;;;;;;27.89;44.58;100127.63;4994775;28;20030;-62
2021/07/06 08:13:25;;;;;;;1.42;0.45;;;;;;;27.91;44.44;100136.47;4994977;28;20386;-62
2021/07/06 08:15:51;;;;;;;0.43;0.20;;;;;;;27.92;44.54;100134.56;4994600;28;20033;-62
2021/07/06 08:18:17;;;;;;;0.55;0.30;;;;;;;27.79;44.02;100138.53;4994873;28;20026;-62
2021/07/06 08:20:43;;;;;;;3.00;0.43;;;;;;;27.84;43.83;100135.84;4994870;28;20108;-62
2021/07/06 08:23:09;;;;;;;0.88;0.30;;;;;;;28.00;44.40;100156.13;4994986;28;20058;-62
2021/07/06 08:25:36;;;;;;;1.65;0.20;;;;;;;27.99;44.03;100166.31;4994787;28;20054;-62
2021/07/06 08:28:01;;;;;;;0.60;0.40;;;;;;;28.10;43.57;100165.34;4994990;28;20077;-61
2021/07/06 08:30:27;;;;;;;2.88;0.68;;;;;;;28.43;43.28;100171.72;4994613;28;20084;-59
2021/07/06 08:32:52;;;;;;;0.30;0.20;;;;;;;28.19;43.25;100193.28;4994641;28;20387;-60
2021/07/06 08:35:17;;;;;;;0.38;0.30;;;;;;;28.00;44.20;100170.69;4994501;28;20034;-60
2021/07/06 08:37:43;;;;;;;0.45;0.30;;;;;;;27.83;44.16;100192.03;4994834;28;20030;-62
2021/07/06 08:40:09;;;;;;;0.93;0.30;;;;;;;27.76;43.79;100177.59;4994483;28;20030;-61
2021/07/06 08:42:37;;;;;;;2.25;0.40;;;;;;;27.67;44.35;100162.63;4994286;28;20039;-62
2021/07/06 08:45:04;;;;;;;5.85;0.35;;;;;;;27.73;44.01;100167.09;4994544;28;20452;-62
2021/07/06 08:47:30;;;;;;;3.33;0.20;;;;;;;27.91;44.10;100169.53;4994234;28;20073;-62
2021/07/06 08:49:56;;;;;;;0.70;0.20;;;;;;;28.06;43.40;100166.94;4995318;28;20026;-62
2021/07/06 08:52:22;;;;;;;1.85;0.40;;;;;;;28.28;42.71;100176.00;4994437;28;20018;-60
2021/07/06 08:54:48;;;;;;;5.00;0.88;;;;;;;28.71;42.99;100174.19;4994231;28;20030;-60
2021/07/06 08:57:13;;;;;;;2.88;0.40;;;;;;;28.76;42.00;100185.25;4993212;28;20376;-59
2021/07/06 08:59:40;;;;;;;0.95;0.30;;;;;;;28.77;42.79;100187.75;4994334;28;20033;-59
2021/07/06 09:02:07;;;;;;;0.28;0.20;;;;;;;28.90;42.13;100172.66;4992848;28;20054;-59
2021/07/06 09:04:50;;;;;;;0.77;0.30;;;;;;;29.19;41.05;100184.19;4994383;28;20092;-59
2021/07/06 09:07:16;;;;;;;3.10;0.40;;;;;;;29.29;41.57;100176.81;4998217;28;20033;-59
2021/07/06 09:09:41;;;;;;;0.60;0.25;;;;;;;29.17;41.42;100170.66;4998328;28;20475;-59
2021/07/06 09:12:14;;;;;;;0.95;0.40;;;;;;;29.42;41.34;100176.34;4998284;28;20030;-59
2021/07/06 09:14:44;;;;;;;0.82;0.30;;;;;;;29.62;40.97;100186.63;4998472;28;20036;-59
2021/07/06 09:17:13;;;;;;;1.13;0.28;;;;;;;30.15;40.29;100190.16;4997788;28;20065;-59
2021/07/06 09:19:47;;;;;;;1.73;0.40;;;;;;;30.30;39.90;100198.47;4998102;28;20036;-59
2021/07/06 09:22:16;;;;;;;0.88;0.22;;;;;;;30.22;40.13;100186.03;4998004;28;20033;-59
2021/07/06 09:24:45;;;;;;;1.98;0.50;;;;;;;30.52;39.03;100194.38;4997999;28;20066;-59
2021/07/06 09:27:23;;;;;;;0.68;0.32;;;;;;;30.75;39.13;100200.47;4997665;28;20057;-60
2021/07/06 09:30:01;;;;;;;0.85;0.30;;;;;;;30.96;39.09;100204.94;4997600;28;20049;-60
2021/07/06 09:32:26;;;;;;;1.08;0.38;;;;;;;30.78;39.05;100213.75;4997551;28;20034;-60
2021/07/06 09:34:52;;;;;;;0.85;0.80;;;;;;;30.85;38.66;100206.00;4997824;28;20461;-60
2021/07/06 09:37:17;;;;;;;2.05;0.52;;;;;;;30.59;39.27;100202.41;4997723;28;20113;-59
2021/07/06 09:39:43;;;;;;;4.50;1.00;;;;;;;30.52;39.11;100208.22;5029718;28;20026;-59
2021/07/06 09:42:11;;;;;;;1.40;0.40;;;;;;;30.54;39.21;100205.19;4997751;28;20068;-60
2021/07/06 09:44:40;;;;;;;4.70;0.52;;;;;;;30.43;38.86;100228.41;4997159;28;20181;-59
2021/07/06 09:47:08;;;;;;;1.48;0.50;;;;;;;30.43;38.74;100226.44;4997576;28;20049;-60
2021/07/06 09:49:38;;;;;;;2.30;0.30;;;;;;;31.09;37.87;100226.50;4997661;28;20030;-59
2021/07/06 09:52:16;;;;;;;1.75;0.50;;;;;;;30.91;37.80;100221.47;4997487;28;20027;-60
2021/07/06 09:54:46;;;;;;;0.88;0.35;;;;;;;30.91;38.14;100208.47;4997370;28;20109;-59
2021/07/06 09:57:32;;;;;;;1.73;0.60;;;;;;;31.28;36.97;100233.09;4997116;28;20029;-59
2021/07/06 10:00:08;;;;;;;4.88;0.52;;;;;;;31.63;36.60;100232.22;4997378;28;20022;-59
2021/07/06 10:02:35;;;;;;;3.28;0.38;;;;;;;31.70;36.39;100225.25;4996984;28;20026;-60
2021/07/06 10:05:07;;;;;;;3.20;0.47;;;;;;;31.82;36.34;100243.50;4997268;28;20034;-60
2021/07/06 10:07:35;;;;;;;0.77;0.32;;;;;;;32.15;35.32;100246.44;4997513;28;20046;-59
2021/07/06 10:10:00;;;;;;;4.93;4.13;;;;;;;32.44;34.99;100240.97;4997177;28;20544;-60
2021/07/06 10:12:26;;;;;;;150.77;143.75;;;;;;;32.87;34.86;100253.16;4996782;28;20034;-60
2021/07/06 10:14:52;;;;;;;215.23;204.88;;;;;;;33.57;34.02;100245.28;4997409;28;20053;-60
2021/07/06 10:17:18;;;;;;;0.90;0.90;;;;;;;34.59;32.03;100254.88;4995821;28;20062;-59
2021/07/06 10:19:45;;;;;;;1.23;0.80;;;;;;;36.24;30.55;100251.28;4996688;28;20109;-60
2021/07/06 10:22:13;;;;;;;4.43;0.90;;;;;;;37.23;29.50;100247.19;4996939;28;20375;-60
2021/07/06 10:24:40;;;;;;;1.98;0.90;;;;;;;37.33;29.68;100241.31;4996569;28;20077;-60
2021/07/06 10:27:08;;;;;;;3.63;0.40;;;;;;;36.18;31.14;100253.34;4996887;28;20477;-60
2021/07/06 10:29:36;;;;;;;1.70;1.58;;;;;;;35.96;30.57;100244.88;4996590;28;20033;-60
2021/07/06 10:32:03;;;;;;;2.83;0.30;;;;;;;35.00;31.88;100246.69;4996796;28;20106;-60
2021/07/06 10:34:29;;;;;;;2.42;1.80;;;;;;;35.20;31.40;100253.88;5028662;28;20026;-59
2021/07/06 10:36:58;;;;;;;1.95;0.55;;;;;;;35.06;30.97;100242.69;5027936;28;20037;-59
2021/07/06 10:39:47;;;;;;;4.53;0.68;;;;;;;35.07;31.24;100247.13;4996563;28;20054;-59
2021/07/06 10:42:14;;;;;;;1.05;1.00;;;;;;;35.10;32.23;100254.88;4996702;28;20505;-60
2021/07/06 10:44:42;;;;;;;0.98;0.38;;;;;;;34.46;32.54;100261.97;4995675;28;20134;-60
2021/07/06 10:47:37;;;;;;;5.15;0.45;;;;;;;33.90;32.68;100261.88;4996399;28;20517;-59
2021/07/06 10:50:30;;;;;;;1.90;0.35;;;;;;;33.36;32.96;100261.38;4993853;28;20042;-59
2021/07/06 10:53:14;;;;;;;;;;;;;;;33.70;32.51;100264.06;4996553;28;20029;-60
2021/07/06 10:55:40;;;;;;;1.05;0.20;;;;;;;34.30;32.01;100263.34;4995993;28;19910;-60
2021/07/06 10:58:05;;;;;;;4.07;0.28;;;;;;;33.95;33.09;100261.81;4996296;28;20030;-60
2021/07/06 11:00:41;;;;;;;7.50;0.50;;;;;;;33.61;33.57;100271.41;4996218;28;20370;-60
2021/07/06 11:03:13;;;;;;;2.15;0.28;;;;;;;33.13;32.99;100270.47;4996123;28;20471;-60
2021/07/06 11:05:39;;;;;;;2.15;0.10;;;;;;;32.91;33.65;100278.41;4995902;28;20034;-60
2021/07/06 11:08:04;;;;;;;4.75;0.32;;;;;;;32.73;33.84;100279.91;4996158;28;20076;-59
2021/07/06 11:10:33;;;;;;;3.22;0.47;;;;;;;32.43;33.43;100280.94;4995838;28;20029;-60
2021/07/06 11:13:11;;;;;;;2.92;0.88;;;;;;;32.15;34.04;100279.69;4996055;28;20493;-60
2021/07/06 11:15:36;;;;;;;2.63;0.30;;;;;;;31.98;34.03;100283.88;4995675;28;20033;-60
2021/07/06 11:18:04;;;;;;;1.88;0.40;;;;;;;31.76;34.16;100291.72;4995949;28;20479;-59
2021/07/06 11:20:46;;;;;;;2.75;0.60;;;;;;;31.69;34.54;100276.22;4995909;28;20440;-60
2021/07/06 11:23:32;;;;;;;0.98;0.50;;;;;;;32.88;33.85;100278.97;4996369;28;20026;-60
2021/07/06 11:26:10;;;;;;;4.82;0.82;;;;;;;33.43;33.50;100272.94;4996067;28;20034;-59
2021/07/06 11:28:49;;;;;;;1.50;0.52;;;;;;;33.18;33.67;100275.97;4995372;28;20101;-60
2021/07/06 11:31:19;;;;;;;3.08;1.85;;;;;;;33.59;33.45;100270.84;5026787;28;20027;-59